Weather at Amílcar Cabral International Airport

Public forecast

Using degrees Celsius for public forecast. Weather courtesy of forecast.io.

Current aviation weather report (METAR) for Amílcar Cabral International Airport

Report is more than 6 hours old.

2022/11/14 15:00 (retrieved 2 years ago)

GVAC 141500Z 03015KT 9999 BKN014 BKN200 27/19 Q1015 NOSIG

Aviation forecast (TAF) for Amílcar Cabral International Airport

Forecast is more than 12 hours old.

2023/02/22 18:00 (retrieved 1 year ago)

TAF GVAC 221700Z 2218/2324 05018KT 9999 SCT014 TEMPO 2218/2221 -DZ BKN014